createdAt,value
2023-05-20T00:01:16.080Z,5.32
2023-05-20T00:03:46.468Z,5.00
2023-05-20T00:06:14.767Z,5.00
2023-05-20T00:08:42.817Z,5.07
2023-05-20T00:11:11.434Z,4.85
2023-05-20T00:13:40.181Z,5.07
2023-05-20T00:16:08.434Z,4.97
2023-05-20T00:18:36.513Z,5.15
2023-05-20T00:21:06.079Z,4.50
2023-05-20T00:23:34.262Z,5.00
2023-05-20T00:26:02.271Z,5.15
2023-05-20T00:28:30.764Z,4.60
2023-05-20T00:30:58.829Z,5.40
2023-05-20T00:33:26.949Z,4.60
2023-05-20T00:35:55.095Z,4.57
2023-05-20T00:38:24.617Z,4.43
2023-05-20T00:40:52.716Z,4.50
2023-05-20T00:43:20.837Z,4.10
2023-05-20T00:45:49.174Z,4.35
2023-05-20T00:48:17.447Z,4.35
2023-05-20T00:50:45.814Z,4.53
2023-05-20T00:53:14.128Z,4.47
2023-05-20T00:55:43.734Z,4.40
2023-05-20T00:58:12.495Z,4.60
2023-05-20T01:00:40.727Z,4.22
2023-05-20T01:03:09.607Z,4.60
2023-05-20T01:05:39.846Z,4.32
2023-05-20T01:08:09.618Z,4.53
2023-05-20T01:10:43.229Z,4.45
2023-05-20T01:13:17.191Z,4.25
2023-05-20T01:15:48.452Z,4.53
2023-05-20T01:18:18.610Z,4.10
2023-05-20T01:20:51.021Z,3.92
2023-05-20T01:23:21.938Z,3.38
2023-05-20T01:25:50.003Z,3.90
2023-05-20T01:28:18.300Z,3.92
2023-05-20T01:30:53.034Z,3.95
2023-05-20T01:33:24.167Z,3.63
2023-05-20T01:35:52.691Z,3.75
2023-05-20T01:38:24.568Z,3.88
2023-05-20T01:40:53.846Z,3.97
2023-05-20T01:43:22.561Z,3.70
2023-05-20T01:45:50.818Z,3.50
2023-05-20T01:48:18.849Z,3.72
2023-05-20T01:50:46.894Z,3.83
2023-05-20T01:53:15.108Z,3.55
2023-05-20T01:55:44.599Z,3.38
2023-05-20T01:58:12.808Z,3.30
2023-05-20T02:00:41.041Z,3.70
2023-05-20T02:03:09.242Z,3.15
2023-05-20T02:05:37.698Z,3.05
2023-05-20T02:08:06.969Z,2.75
2023-05-20T02:10:35.080Z,3.42
2023-05-20T02:13:04.576Z,2.85
2023-05-20T02:15:33.771Z,2.50
2023-05-20T02:18:02.551Z,2.55
2023-05-20T02:20:31.040Z,2.70
2023-05-20T02:22:59.267Z,2.63
2023-05-20T02:25:27.451Z,2.10
2023-05-20T02:27:55.631Z,2.30
2023-05-20T02:30:25.062Z,2.60
2023-05-20T02:32:53.363Z,2.13
2023-05-20T02:35:21.450Z,2.50
2023-05-20T02:37:49.496Z,2.40
2023-05-20T02:40:18.058Z,2.63
2023-05-20T02:42:46.805Z,2.33
2023-05-20T02:45:14.903Z,2.10
2023-05-20T02:47:44.722Z,2.25
2023-05-20T02:50:12.903Z,2.30
2023-05-20T02:52:42.646Z,2.00
2023-05-20T02:55:11.409Z,2.42
2023-05-20T02:57:39.822Z,2.05
2023-05-20T03:00:12.033Z,2.28
2023-05-20T03:02:40.359Z,2.00
2023-05-20T03:05:11.067Z,2.08
2023-05-20T03:07:39.521Z,2.10
2023-05-20T03:10:09.406Z,1.83
2023-05-20T03:12:39.494Z,2.17
2023-05-20T03:15:09.236Z,2.08
2023-05-20T03:17:38.243Z,2.00
2023-05-20T03:20:08.458Z,1.98
2023-05-20T03:22:37.927Z,2.20
2023-05-20T03:25:06.993Z,2.13
2023-05-20T03:27:36.910Z,2.15
2023-05-20T03:30:05.994Z,1.88
2023-05-20T03:32:34.084Z,2.05
2023-05-20T03:35:02.295Z,2.22
2023-05-20T03:37:30.425Z,2.08
2023-05-20T03:39:59.956Z,2.28
2023-05-20T03:42:28.103Z,1.80
2023-05-20T03:44:56.339Z,2.10
2023-05-20T03:47:24.637Z,2.03
2023-05-20T03:49:52.880Z,1.67
2023-05-20T03:52:20.995Z,2.17
2023-05-20T03:54:49.129Z,1.90
2023-05-20T03:57:19.775Z,2.10
2023-05-20T03:59:48.103Z,2.03
2023-05-20T04:02:16.323Z,1.75
2023-05-20T04:04:45.633Z,1.42
2023-05-20T04:07:14.709Z,2.05
2023-05-20T04:09:43.747Z,1.90
2023-05-20T04:12:12.372Z,1.85
2023-05-20T04:14:42.281Z,1.80
2023-05-20T04:17:10.675Z,1.83
2023-05-20T04:19:39.307Z,1.83
2023-05-20T04:22:07.589Z,1.80
2023-05-20T04:24:35.826Z,1.75
2023-05-20T04:27:03.998Z,2.20
2023-05-20T04:29:34.364Z,2.00
2023-05-20T04:32:04.352Z,1.58
2023-05-20T04:34:35.251Z,2.00
2023-05-20T04:37:03.532Z,1.90
2023-05-20T04:39:31.625Z,1.98
2023-05-20T04:41:59.758Z,1.52
2023-05-20T04:44:29.908Z,1.92
2023-05-20T04:46:59.607Z,1.55
2023-05-20T04:49:29.937Z,1.83
2023-05-20T04:51:58.616Z,1.73
2023-05-20T04:54:26.687Z,1.70
2023-05-20T04:56:54.808Z,1.40
2023-05-20T04:59:22.809Z,1.70
2023-05-20T05:01:51.966Z,1.80
2023-05-20T05:04:20.134Z,1.65
2023-05-20T05:06:50.778Z,2.10
2023-05-20T05:09:18.838Z,1.90
2023-05-20T05:11:48.039Z,1.90
2023-05-20T05:14:16.251Z,1.75
2023-05-20T05:16:44.641Z,1.73
2023-05-20T05:19:13.723Z,1.80
2023-05-20T05:21:42.397Z,1.88
2023-05-20T05:24:11.989Z,2.00
2023-05-20T05:26:40.057Z,1.65
2023-05-20T05:29:09.789Z,1.70
2023-05-20T05:31:39.704Z,1.63
2023-05-20T05:34:07.784Z,2.03
2023-05-20T05:36:35.886Z,1.55
2023-05-20T05:39:04.822Z,1.60
2023-05-20T05:41:34.439Z,1.70
2023-05-20T05:44:03.409Z,1.90
2023-05-20T05:46:31.740Z,1.70
2023-05-20T05:48:59.861Z,1.70
2023-05-20T05:51:29.186Z,1.80
2023-05-20T05:53:58.435Z,2.13
2023-05-20T05:56:26.490Z,1.98
2023-05-20T05:58:55.976Z,1.80
2023-05-20T06:01:24.211Z,2.00
2023-05-20T06:03:52.276Z,1.80
2023-05-20T06:06:21.451Z,1.90
2023-05-20T06:08:50.014Z,1.88
2023-05-20T06:11:18.076Z,1.80
2023-05-20T06:13:46.156Z,2.03
2023-05-20T06:16:15.782Z,1.80
2023-05-20T06:18:44.152Z,1.80
2023-05-20T06:21:12.416Z,1.80
2023-05-20T06:23:41.087Z,2.00
2023-05-20T06:26:12.032Z,1.77
2023-05-20T06:28:40.476Z,2.20
2023-05-20T06:31:09.513Z,2.05
2023-05-20T06:33:39.707Z,1.98
2023-05-20T06:36:11.518Z,1.90
2023-05-20T06:38:39.644Z,2.50
2023-05-20T06:41:08.003Z,1.80
2023-05-20T06:43:36.043Z,1.90
2023-05-20T06:46:06.284Z,2.10
2023-05-20T06:48:39.228Z,2.33
2023-05-20T06:51:09.748Z,1.98
2023-05-20T06:53:38.360Z,1.95
2023-05-20T06:56:07.373Z,2.20
2023-05-20T06:58:35.433Z,2.00
2023-05-20T07:01:03.618Z,2.35
2023-05-20T07:03:32.095Z,2.38
2023-05-20T07:06:01.612Z,2.40
2023-05-20T07:08:30.128Z,2.42
2023-05-20T07:10:58.188Z,2.13
2023-05-20T07:13:26.507Z,1.98
2023-05-20T07:15:54.695Z,1.83
2023-05-20T07:18:22.833Z,1.85
2023-05-20T07:20:56.880Z,2.30
2023-05-20T07:24:02.096Z,2.13
2023-05-20T07:26:33.603Z,2.33
2023-05-20T07:29:01.985Z,2.22
2023-05-20T07:31:30.058Z,2.55
2023-05-20T07:33:58.289Z,2.35
2023-05-20T07:36:28.020Z,2.08
2023-05-20T07:39:04.240Z,2.08
2023-05-20T07:41:37.552Z,2.17
2023-05-20T07:44:08.749Z,2.25
2023-05-20T07:46:39.979Z,2.20
2023-05-20T07:49:08.932Z,2.40
2023-05-20T07:51:37.204Z,2.45
2023-05-20T07:54:06.421Z,2.13
2023-05-20T07:56:34.610Z,2.38
2023-05-20T07:59:04.405Z,2.47
2023-05-20T08:01:40.259Z,2.47
2023-05-20T08:04:08.472Z,2.38
2023-05-20T08:06:38.541Z,2.58
2023-05-20T08:09:08.078Z,2.30
2023-05-20T08:11:40.455Z,2.20
2023-05-20T08:14:10.235Z,2.38
2023-05-20T08:16:43.629Z,2.40
2023-05-20T08:19:11.870Z,2.58
2023-05-20T08:21:40.273Z,2.30
2023-05-20T08:24:08.322Z,2.22
2023-05-20T08:26:37.663Z,2.50
2023-05-20T08:29:06.454Z,2.58
2023-05-20T08:31:36.174Z,2.15
2023-05-20T08:34:04.602Z,2.72
2023-05-20T08:36:32.973Z,2.55
2023-05-20T08:39:01.083Z,2.38
2023-05-20T08:41:30.179Z,2.38
2023-05-20T08:44:02.118Z,2.33
2023-05-20T08:46:31.284Z,2.50
2023-05-20T08:49:01.924Z,2.40
2023-05-20T08:51:33.409Z,3.38
2023-05-20T08:54:01.573Z,2.78
2023-05-20T08:56:31.154Z,3.00
2023-05-20T08:58:59.350Z,2.63
2023-05-20T09:01:27.444Z,2.80
2023-05-20T09:03:55.579Z,2.50
2023-05-20T09:06:25.163Z,2.25
2023-05-20T09:08:53.240Z,2.55
2023-05-20T09:11:23.117Z,2.50
2023-05-20T09:13:51.741Z,3.00
2023-05-20T09:16:19.852Z,2.70
2023-05-20T09:18:48.116Z,2.88
2023-05-20T09:21:16.372Z,2.47
2023-05-20T09:23:50.546Z,2.45
2023-05-20T09:26:19.389Z,2.47
2023-05-20T09:28:47.854Z,2.47
2023-05-20T09:31:16.093Z,2.60
2023-05-20T09:33:45.146Z,2.20
2023-05-20T09:36:16.385Z,2.13
2023-05-20T09:38:47.563Z,2.60
2023-05-20T09:41:17.153Z,2.53
2023-05-20T09:43:46.269Z,2.50
2023-05-20T09:46:15.077Z,2.42
2023-05-20T09:48:43.980Z,2.55
2023-05-20T09:51:13.899Z,2.30
2023-05-20T09:53:43.098Z,2.50
2023-05-20T09:56:11.506Z,2.35
2023-05-20T09:58:43.137Z,2.35
2023-05-20T10:01:11.536Z,2.40
2023-05-20T10:03:41.954Z,2.67
2023-05-20T10:06:30.060Z,2.42
2023-05-20T10:09:17.120Z,2.30
2023-05-20T10:11:53.113Z,2.50
2023-05-20T10:14:41.890Z,2.35
2023-05-20T10:17:18.244Z,2.55
2023-05-20T10:19:46.512Z,2.13
2023-05-20T10:22:14.690Z,2.20
2023-05-20T10:24:44.360Z,2.55
2023-05-20T10:27:14.818Z,2.40
2023-05-20T10:29:45.482Z,2.60
2023-05-20T10:32:13.788Z,2.58
2023-05-20T10:34:51.803Z,2.78
2023-05-20T10:37:26.421Z,2.38
2023-05-20T10:40:04.141Z,2.45
2023-05-20T10:42:32.203Z,2.55
2023-05-20T10:45:01.716Z,2.35
2023-05-20T10:47:29.950Z,2.40
2023-05-20T10:49:58.225Z,2.30
2023-05-20T10:52:26.698Z,2.70
2023-05-20T10:54:59.560Z,2.47
2023-05-20T10:57:28.350Z,2.42
2023-05-20T10:59:57.102Z,2.75
2023-05-20T11:02:28.898Z,2.40
2023-05-20T11:04:58.233Z,2.45
2023-05-20T11:07:27.861Z,2.70
2023-05-20T11:09:56.071Z,2.72
2023-05-20T11:12:25.403Z,2.50
2023-05-20T11:14:53.598Z,2.33
2023-05-20T11:17:21.980Z,2.40
2023-05-20T11:19:52.123Z,2.70
2023-05-20T11:22:20.172Z,2.50
2023-05-20T11:24:48.399Z,2.58
2023-05-20T11:27:16.801Z,2.70
2023-05-20T11:29:45.034Z,2.40
2023-05-20T11:32:13.712Z,2.72
2023-05-20T11:34:42.673Z,2.35
2023-05-20T11:37:12.736Z,2.58
2023-05-20T11:39:40.965Z,2.63
2023-05-20T11:42:09.143Z,2.95
2023-05-20T11:44:37.470Z,2.47
2023-05-20T11:47:05.920Z,2.63
2023-05-20T11:49:41.118Z,2.80
2023-05-20T11:52:13.481Z,2.92
2023-05-20T11:54:41.552Z,2.55
2023-05-20T11:57:09.583Z,2.63
2023-05-20T11:59:37.723Z,2.60
2023-05-20T12:02:05.813Z,2.50
2023-05-20T12:04:34.020Z,2.40
2023-05-20T12:07:04.104Z,2.38
2023-05-20T12:09:33.607Z,2.65
2023-05-20T12:12:02.792Z,2.75
2023-05-20T12:14:30.870Z,2.75
2023-05-20T12:16:59.889Z,2.58
2023-05-20T12:19:28.107Z,2.50
2023-05-20T12:21:56.329Z,2.40
2023-05-20T12:24:24.352Z,2.42
2023-05-20T12:26:53.836Z,2.17
2023-05-20T12:29:21.854Z,2.30
2023-05-20T12:31:50.008Z,2.20
2023-05-20T12:34:18.119Z,2.33
2023-05-20T12:36:47.294Z,2.03
2023-05-20T12:39:17.738Z,2.08
2023-05-20T12:41:45.875Z,2.22
2023-05-20T12:44:15.319Z,2.65
2023-05-20T12:46:43.820Z,2.05
2023-05-20T12:49:11.975Z,2.10
2023-05-20T12:51:40.033Z,2.50
2023-05-20T12:54:08.081Z,2.55
2023-05-20T12:56:36.176Z,2.40
2023-05-20T12:59:04.245Z,2.00
2023-05-20T13:01:33.807Z,2.17
2023-05-20T13:04:01.982Z,2.17
2023-05-20T13:06:30.110Z,2.78
2023-05-20T13:08:58.224Z,2.70
2023-05-20T13:11:26.324Z,2.10
2023-05-20T13:13:56.626Z,2.42
2023-05-20T13:16:24.916Z,2.70
2023-05-20T13:18:54.451Z,2.13
2023-05-20T13:21:22.621Z,2.30
2023-05-20T13:23:50.699Z,2.05
2023-05-20T13:26:19.122Z,2.25
2023-05-20T13:28:47.329Z,2.28
2023-05-20T13:31:15.421Z,2.50
2023-05-20T13:33:43.542Z,2.33
2023-05-20T13:36:13.867Z,2.05
2023-05-20T13:38:41.968Z,2.25
2023-05-20T13:41:10.104Z,2.35
2023-05-20T13:43:39.209Z,2.22
2023-05-20T13:46:07.326Z,2.47
2023-05-20T13:48:35.414Z,1.83
2023-05-20T13:51:03.586Z,1.80
2023-05-20T13:53:33.038Z,2.13
2023-05-20T13:56:01.271Z,2.58
2023-05-20T13:58:29.350Z,1.90
2023-05-20T14:00:57.417Z,2.20
2023-05-20T14:03:27.490Z,2.28
2023-05-20T14:05:55.984Z,2.22
2023-05-20T14:08:24.213Z,2.08
2023-05-20T14:10:54.989Z,2.33
2023-05-20T14:13:23.540Z,2.08
2023-05-20T14:15:51.727Z,2.35
2023-05-20T14:18:20.604Z,2.13
2023-05-20T14:20:49.252Z,2.20
2023-05-20T14:23:17.350Z,2.55
2023-05-20T14:25:45.437Z,2.17
2023-05-20T14:28:14.881Z,2.30
2023-05-20T14:30:42.930Z,2.17
2023-05-20T14:33:11.145Z,2.33
2023-05-20T14:35:39.297Z,2.35
2023-05-20T14:38:07.347Z,2.30
2023-05-20T14:40:37.286Z,1.92
2023-05-20T14:43:05.622Z,2.25
2023-05-20T14:45:35.176Z,2.13
2023-05-20T14:48:03.273Z,2.03
2023-05-20T14:50:31.505Z,2.22
2023-05-20T14:52:59.544Z,2.22
2023-05-20T14:55:27.611Z,2.50
2023-05-20T14:57:55.697Z,2.00
2023-05-20T15:00:23.800Z,2.05
2023-05-20T15:02:53.386Z,1.95
2023-05-20T15:05:21.599Z,2.53
2023-05-20T15:07:51.031Z,2.13
2023-05-20T15:10:19.099Z,2.60
2023-05-20T15:12:47.327Z,2.20
2023-05-20T15:15:15.442Z,2.10
2023-05-20T15:17:43.778Z,2.05
2023-05-20T15:20:13.788Z,2.10
2023-05-20T15:22:44.219Z,2.60
2023-05-20T15:25:12.408Z,2.40
2023-05-20T15:27:41.859Z,2.15
2023-05-20T15:30:11.157Z,2.13
2023-05-20T15:32:39.989Z,2.38
2023-05-20T15:35:09.124Z,2.15
2023-05-20T15:37:38.558Z,2.20
2023-05-20T15:40:07.885Z,2.20
2023-05-20T15:42:35.932Z,2.30
2023-05-20T15:45:04.269Z,2.42
2023-05-20T15:47:32.334Z,2.30
2023-05-20T15:50:02.452Z,1.92
2023-05-20T15:52:30.781Z,2.20
2023-05-20T15:55:00.255Z,2.05
2023-05-20T15:57:29.310Z,2.47
2023-05-20T15:59:57.453Z,2.50
2023-05-20T16:02:25.773Z,2.00
2023-05-20T16:04:53.941Z,2.10
2023-05-20T16:07:22.001Z,2.13
2023-05-20T16:09:50.052Z,2.22
2023-05-20T16:12:19.509Z,2.50
2023-05-20T16:14:47.798Z,2.28
2023-05-20T16:17:16.810Z,2.70
2023-05-20T16:19:45.023Z,2.05
2023-05-20T16:22:13.506Z,2.58
2023-05-20T16:24:41.696Z,2.25
2023-05-20T16:27:09.783Z,2.47
2023-05-20T16:29:39.843Z,2.45
2023-05-20T16:32:11.052Z,2.40
2023-05-20T16:34:39.143Z,2.10
2023-05-20T16:37:07.208Z,2.55
2023-05-20T16:39:35.264Z,2.28
2023-05-20T16:42:03.782Z,2.70
2023-05-20T16:44:31.829Z,2.40
2023-05-20T16:47:01.273Z,2.58
2023-05-20T16:49:29.742Z,2.53
2023-05-20T16:51:58.590Z,2.42
2023-05-20T16:54:26.985Z,2.67
2023-05-20T16:56:55.054Z,4.00
2023-05-20T16:59:24.861Z,3.92
2023-05-20T17:01:52.941Z,3.10
2023-05-20T17:04:22.373Z,3.28
2023-05-20T17:06:51.289Z,2.97
2023-05-20T17:09:19.510Z,2.70
2023-05-20T17:11:47.631Z,2.90
2023-05-20T17:14:15.848Z,2.95
2023-05-20T17:16:44.009Z,3.35
2023-05-20T17:19:12.165Z,2.92
2023-05-20T17:21:41.703Z,3.20
2023-05-20T17:24:09.732Z,3.00
2023-05-20T17:26:37.792Z,3.40
2023-05-20T17:29:06.030Z,2.97
2023-05-20T17:31:34.108Z,3.25
2023-05-20T17:34:02.243Z,3.00
2023-05-20T17:36:31.486Z,3.15
2023-05-20T17:39:04.289Z,3.35
2023-05-20T17:41:32.418Z,3.15
2023-05-20T17:44:01.505Z,3.30
2023-05-20T17:46:29.609Z,3.03
2023-05-20T17:48:57.870Z,2.80
2023-05-20T17:51:25.912Z,2.67
2023-05-20T17:53:54.180Z,3.13
2023-05-20T17:56:23.967Z,2.90
2023-05-20T17:58:53.350Z,3.38
2023-05-20T18:01:23.492Z,3.20
2023-05-20T18:03:51.850Z,3.40
2023-05-20T18:06:20.061Z,3.20
2023-05-20T18:08:48.837Z,3.38
2023-05-20T18:11:16.889Z,3.53
2023-05-20T18:13:46.316Z,3.55
2023-05-20T18:16:14.450Z,2.97
2023-05-20T18:18:42.574Z,3.55
2023-05-20T18:21:10.722Z,3.10
2023-05-20T18:23:38.749Z,3.30
2023-05-20T18:26:09.179Z,3.35
2023-05-20T18:28:37.281Z,2.75
2023-05-20T18:31:06.827Z,3.15
2023-05-20T18:33:37.020Z,3.33
2023-05-20T18:36:06.821Z,3.35
2023-05-20T18:38:34.861Z,2.92
2023-05-20T18:41:03.017Z,3.22
2023-05-20T18:43:31.216Z,3.00
2023-05-20T18:45:59.401Z,3.28
2023-05-20T18:48:28.906Z,3.10
2023-05-20T18:50:58.694Z,3.13
2023-05-20T18:53:26.886Z,3.35
2023-05-20T18:55:56.050Z,3.35
2023-05-20T18:58:24.190Z,3.08
2023-05-20T19:00:52.309Z,3.22
2023-05-20T19:03:21.355Z,3.22
2023-05-20T19:05:51.040Z,3.40
2023-05-20T19:08:19.255Z,3.35
2023-05-20T19:10:47.355Z,3.33
2023-05-20T19:13:15.681Z,3.05
2023-05-20T19:15:44.007Z,2.85
2023-05-20T19:18:13.544Z,3.35
2023-05-20T19:20:41.578Z,3.08
2023-05-20T19:23:11.121Z,3.13
2023-05-20T19:25:39.214Z,3.35
2023-05-20T19:28:07.289Z,3.15
2023-05-20T19:30:35.542Z,3.13
2023-05-20T19:33:05.857Z,3.47
2023-05-20T19:35:34.908Z,3.60
2023-05-20T19:38:04.975Z,3.20
2023-05-20T19:40:34.548Z,3.60
2023-05-20T19:43:02.724Z,3.38
2023-05-20T19:45:33.631Z,3.63
2023-05-20T19:48:02.048Z,3.00
2023-05-20T19:50:30.437Z,3.15
2023-05-20T19:53:00.491Z,3.25
2023-05-20T19:55:28.673Z,3.55
2023-05-20T19:57:58.102Z,3.30
2023-05-20T20:00:26.354Z,3.25
2023-05-20T20:02:57.017Z,3.20
2023-05-20T20:05:30.681Z,3.17
2023-05-20T20:08:01.779Z,3.67
2023-05-20T20:10:30.980Z,2.95
2023-05-20T20:13:00.489Z,3.63
2023-05-20T20:15:30.476Z,3.40
2023-05-20T20:17:59.184Z,3.10
2023-05-20T20:20:27.802Z,3.08
2023-05-20T20:22:58.945Z,3.58
2023-05-20T20:25:29.868Z,3.60
2023-05-20T20:27:58.027Z,3.38
2023-05-20T20:30:27.782Z,3.05
2023-05-20T20:32:55.883Z,3.08
2023-05-20T20:35:24.399Z,3.83
2023-05-20T20:37:54.346Z,3.53
2023-05-20T20:40:22.628Z,3.47
2023-05-20T20:42:50.728Z,3.40
2023-05-20T20:45:22.683Z,3.45
2023-05-20T20:47:54.761Z,3.40
2023-05-20T20:50:23.026Z,3.83
2023-05-20T20:52:51.041Z,3.42
2023-05-20T20:55:19.478Z,3.60
2023-05-20T20:57:48.044Z,3.70
2023-05-20T21:00:19.008Z,3.60
2023-05-20T21:02:47.212Z,3.30
2023-05-20T21:05:17.628Z,3.88
2023-05-20T21:07:49.719Z,3.50
2023-05-20T21:10:17.970Z,3.78
2023-05-20T21:12:46.101Z,4.13
2023-05-20T21:15:15.081Z,3.35
2023-05-20T21:17:43.257Z,3.78
2023-05-20T21:20:12.680Z,3.60
2023-05-20T21:22:42.092Z,3.47
2023-05-20T21:25:10.873Z,3.67
2023-05-20T21:27:39.005Z,3.47
2023-05-20T21:30:08.295Z,3.60
2023-05-20T21:32:36.401Z,4.00
2023-05-20T21:35:04.869Z,3.65
2023-05-20T21:37:40.802Z,3.67
2023-05-20T21:40:11.220Z,3.85
2023-05-20T21:42:39.336Z,3.83
2023-05-20T21:45:08.974Z,3.40
2023-05-20T21:47:37.187Z,3.72
2023-05-20T21:50:06.188Z,3.63
2023-05-20T21:52:34.312Z,3.60
2023-05-20T21:55:02.427Z,4.10
2023-05-20T21:57:31.796Z,4.10
2023-05-20T21:59:59.884Z,3.80
2023-05-20T22:02:28.060Z,3.88
2023-05-20T22:04:57.744Z,3.58
2023-05-20T22:07:25.799Z,3.78
2023-05-20T22:09:53.887Z,3.95
2023-05-20T22:12:22.869Z,3.88
2023-05-20T22:14:52.364Z,3.50
2023-05-20T22:17:20.526Z,3.90
2023-05-20T22:19:49.909Z,3.67
2023-05-20T22:22:17.996Z,3.50
2023-05-20T22:24:46.050Z,3.38
2023-05-20T22:27:14.210Z,4.00
2023-05-20T22:29:42.258Z,3.92
2023-05-20T22:32:11.693Z,4.10
2023-05-20T22:34:40.149Z,4.15
2023-05-20T22:37:09.316Z,4.22
2023-05-20T22:39:37.637Z,4.05
2023-05-20T22:42:06.419Z,3.83
2023-05-20T22:44:34.703Z,3.80
2023-05-20T22:47:03.028Z,3.83
2023-05-20T22:49:32.795Z,4.18
2023-05-20T22:52:01.703Z,3.45
2023-05-20T22:54:29.974Z,3.72
2023-05-20T22:56:59.393Z,3.58
2023-05-20T22:59:31.169Z,4.07
2023-05-20T23:01:59.514Z,4.20
2023-05-20T23:04:27.867Z,3.92
2023-05-20T23:06:59.432Z,3.70
2023-05-20T23:09:28.112Z,3.95
2023-05-20T23:11:56.354Z,4.05
2023-05-20T23:14:24.694Z,4.18
2023-05-20T23:16:53.104Z,4.20
2023-05-20T23:19:21.471Z,5.03
2023-05-20T23:21:49.733Z,4.50
2023-05-20T23:24:19.457Z,4.07
2023-05-20T23:26:47.818Z,4.72
2023-05-20T23:29:16.352Z,4.25
2023-05-20T23:31:44.787Z,4.63
2023-05-20T23:34:13.162Z,4.57
2023-05-20T23:36:42.725Z,4.50
2023-05-20T23:39:11.010Z,4.97
2023-05-20T23:41:40.716Z,4.60
2023-05-20T23:44:09.045Z,4.63
2023-05-20T23:46:38.109Z,4.32
2023-05-20T23:49:06.850Z,4.97
2023-05-20T23:51:35.734Z,5.00
2023-05-20T23:54:04.074Z,4.75
2023-05-20T23:56:32.365Z,4.80
2023-05-20T23:59:02.118Z,4.43
